createdAt,value
2022-09-02T00:01:38.208Z,40.89
2022-09-02T00:04:09.421Z,40.60
2022-09-02T00:06:37.498Z,40.64
2022-09-02T00:09:07.646Z,40.69
2022-09-02T00:11:37.574Z,40.60
2022-09-02T00:14:08.380Z,40.64
2022-09-02T00:16:35.657Z,40.50
2022-09-02T00:19:04.863Z,40.60
2022-09-02T00:21:34.528Z,40.39
2022-09-02T00:24:04.342Z,40.58
2022-09-02T00:26:31.794Z,40.54
2022-09-02T00:28:59.128Z,40.30
2022-09-02T00:31:29.031Z,40.38
2022-09-02T00:33:56.895Z,40.60
2022-09-02T00:36:24.115Z,40.65
2022-09-02T00:38:51.916Z,40.74
2022-09-02T00:41:22.776Z,40.69
2022-09-02T00:43:52.415Z,40.75
2022-09-02T00:46:24.255Z,40.51
2022-09-02T00:49:06.262Z,40.74
2022-09-02T00:52:11.977Z,40.82
2022-09-02T00:54:50.472Z,40.68
2022-09-02T00:57:23.217Z,40.63
2022-09-02T01:00:09.193Z,40.79
2022-09-02T01:02:39.036Z,40.88
2022-09-02T01:05:10.766Z,40.91
2022-09-02T01:07:38.994Z,40.88
2022-09-02T01:10:15.164Z,40.91
2022-09-02T01:12:42.924Z,40.87
2022-09-02T01:15:12.078Z,40.75
2022-09-02T01:17:47.800Z,40.83
2022-09-02T01:20:17.832Z,41.20
2022-09-02T01:22:45.829Z,41.20
2022-09-02T01:25:17.733Z,40.89
2022-09-02T01:27:45.096Z,41.31
2022-09-02T01:30:19.507Z,41.45
2022-09-02T01:32:47.243Z,41.60
2022-09-02T01:35:15.243Z,41.57
2022-09-02T01:37:43.068Z,41.88
2022-09-02T01:40:24.081Z,41.88
2022-09-02T01:43:00.457Z,42.09
2022-09-02T01:45:29.256Z,42.30
2022-09-02T01:47:56.622Z,42.47
2022-09-02T01:50:24.154Z,42.48
2022-09-02T01:52:51.365Z,43.14
2022-09-02T01:55:18.611Z,42.59
2022-09-02T01:57:45.826Z,43.16
2022-09-02T02:00:13.898Z,43.08
2022-09-02T02:02:43.269Z,43.28
2022-09-02T02:05:11.156Z,43.51
2022-09-02T02:07:38.357Z,43.33
2022-09-02T02:10:07.933Z,43.54
2022-09-02T02:12:35.160Z,43.78
2022-09-02T02:15:07.486Z,43.85
2022-09-02T02:17:34.907Z,43.64
2022-09-02T02:20:02.385Z,43.39
2022-09-02T02:22:29.642Z,43.58
2022-09-02T02:24:56.874Z,43.85
2022-09-02T02:27:24.422Z,43.92
2022-09-02T02:29:51.885Z,43.80
2022-09-02T02:32:21.809Z,43.54
2022-09-02T02:34:49.386Z,43.59
2022-09-02T02:37:16.566Z,43.75
2022-09-02T02:39:44.336Z,44.31
2022-09-02T02:42:13.332Z,43.75
2022-09-02T02:44:41.228Z,43.82
2022-09-02T02:47:09.452Z,43.96
2022-09-02T02:49:43.571Z,44.09
2022-09-02T02:52:12.260Z,43.81
2022-09-02T02:54:40.400Z,44.19
2022-09-02T02:57:08.792Z,44.22
2022-09-02T02:59:36.958Z,44.17
2022-09-02T03:02:06.226Z,44.01
2022-09-02T03:04:34.067Z,44.26
2022-09-02T03:07:01.351Z,44.25
2022-09-02T03:09:28.569Z,43.67
2022-09-02T03:11:55.769Z,43.96
2022-09-02T03:14:23.014Z,43.75
2022-09-02T03:16:50.250Z,43.63
2022-09-02T03:19:17.425Z,43.80
2022-09-02T03:21:44.629Z,43.89
2022-09-02T03:24:12.862Z,44.03
2022-09-02T03:26:42.169Z,44.25
2022-09-02T03:29:09.607Z,44.23
2022-09-02T03:31:36.929Z,44.35
2022-09-02T03:34:04.408Z,44.51
2022-09-02T03:36:38.845Z,44.07
2022-09-02T03:39:10.016Z,44.39
2022-09-02T03:41:41.030Z,44.43
2022-09-02T03:44:09.613Z,44.43
2022-09-02T03:46:37.175Z,43.98
2022-09-02T03:49:05.039Z,44.53
2022-09-02T03:51:32.720Z,44.05
2022-09-02T03:54:00.123Z,44.48
2022-09-02T03:56:27.291Z,44.39
2022-09-02T03:58:54.754Z,44.62
2022-09-02T04:01:25.065Z,44.15
2022-09-02T04:03:56.440Z,44.12
2022-09-02T04:06:26.295Z,44.71
2022-09-02T04:09:00.078Z,44.72
2022-09-02T04:11:27.497Z,44.45
2022-09-02T04:13:54.728Z,44.43
2022-09-02T04:17:18.370Z,44.31
2022-09-02T04:20:42.613Z,44.99
2022-09-02T04:23:10.384Z,44.77
2022-09-02T04:25:43.499Z,44.50
2022-09-02T04:28:10.952Z,44.65
2022-09-02T04:30:42.224Z,44.58
2022-09-02T04:33:10.189Z,44.78
2022-09-02T04:35:41.422Z,44.63
2022-09-02T04:38:08.659Z,44.98
2022-09-02T04:40:36.195Z,44.58
2022-09-02T04:43:04.338Z,44.54
2022-09-02T04:45:31.518Z,44.99
2022-09-02T04:47:58.673Z,45.20
2022-09-02T04:50:25.915Z,45.33
2022-09-02T04:52:53.131Z,44.93
2022-09-02T04:55:20.282Z,45.33
2022-09-02T04:57:47.601Z,45.50
2022-09-02T05:00:15.253Z,44.95
2022-09-02T05:02:42.451Z,45.12
2022-09-02T05:05:10.328Z,44.82
2022-09-02T05:07:38.691Z,45.50
2022-09-02T05:10:07.098Z,44.92
2022-09-02T05:12:35.874Z,45.62
2022-09-02T05:15:03.571Z,45.63
2022-09-02T05:17:32.897Z,45.66
2022-09-02T05:20:00.177Z,45.47
2022-09-02T05:22:29.380Z,45.19
2022-09-02T05:24:57.372Z,45.78
2022-09-02T05:27:25.238Z,45.79
2022-09-02T05:29:59.404Z,45.92
2022-09-02T05:32:27.746Z,45.60
2022-09-02T05:34:56.118Z,45.41
2022-09-02T05:37:26.977Z,45.50
2022-09-02T05:39:54.235Z,45.99
2022-09-02T05:42:21.591Z,46.09
2022-09-02T05:44:48.881Z,45.81
2022-09-02T05:47:16.173Z,45.64
2022-09-02T05:49:43.357Z,45.85
2022-09-02T05:52:12.912Z,46.39
2022-09-02T05:54:40.892Z,46.20
2022-09-02T05:57:11.905Z,46.51
2022-09-02T05:59:42.393Z,46.34
2022-09-02T06:02:14.496Z,46.01
2022-09-02T06:04:44.605Z,46.09
2022-09-02T06:07:13.788Z,46.65
2022-09-02T06:09:41.460Z,46.63
2022-09-02T06:12:09.038Z,46.49
2022-09-02T06:14:37.999Z,46.31
2022-09-02T06:17:05.872Z,46.07
2022-09-02T06:19:34.391Z,46.76
2022-09-02T06:22:02.903Z,46.55
2022-09-02T06:24:31.031Z,46.53
2022-09-02T06:27:00.768Z,46.54
2022-09-02T06:29:28.659Z,46.50
2022-09-02T06:31:56.117Z,46.04
2022-09-02T06:34:26.799Z,46.56
2022-09-02T06:36:54.173Z,45.97
2022-09-02T06:39:23.630Z,46.62
2022-09-02T06:41:51.432Z,45.87
2022-09-02T06:44:21.550Z,46.41
2022-09-02T06:46:55.440Z,46.56
2022-09-02T06:49:23.864Z,46.16
2022-09-02T06:51:54.705Z,46.30
2022-09-02T06:54:22.835Z,46.05
2022-09-02T06:56:51.489Z,45.54
2022-09-02T06:59:22.565Z,45.51
2022-09-02T07:01:50.896Z,45.71
2022-09-02T07:04:37.414Z,45.53
2022-09-02T07:07:06.686Z,45.33
2022-09-02T07:09:33.911Z,45.01
2022-09-02T07:12:05.721Z,45.39
2022-09-02T07:14:37.893Z,45.03
2022-09-02T07:17:05.842Z,44.83
2022-09-02T07:19:33.661Z,44.93
2022-09-02T07:22:02.554Z,44.79
2022-09-02T07:24:29.760Z,44.82
2022-09-02T07:26:57.040Z,44.39
2022-09-02T07:29:24.238Z,44.55
2022-09-02T07:31:51.523Z,44.35
2022-09-02T07:34:19.256Z,44.15
2022-09-02T07:36:46.680Z,44.05
2022-09-02T07:39:14.916Z,43.67
2022-09-02T07:41:44.492Z,43.34
2022-09-02T07:44:11.854Z,43.34
2022-09-02T07:46:39.697Z,42.94
2022-09-02T07:49:09.610Z,42.52
2022-09-02T07:51:40.353Z,42.51
2022-09-02T07:54:10.692Z,41.95
2022-09-02T07:56:38.130Z,42.04
2022-09-02T07:59:05.334Z,41.45
2022-09-02T08:01:33.712Z,41.50
2022-09-02T08:04:02.857Z,40.96
2022-09-02T08:06:34.682Z,41.01
2022-09-02T08:09:11.023Z,40.45
2022-09-02T08:11:44.300Z,40.23
2022-09-02T08:14:19.634Z,39.96
2022-09-02T08:16:48.407Z,39.92
2022-09-02T08:19:16.204Z,39.24
2022-09-02T08:21:44.517Z,39.37
2022-09-02T08:24:11.855Z,39.20
2022-09-02T08:26:39.071Z,38.52
2022-09-02T08:29:08.076Z,38.69
2022-09-02T08:31:38.015Z,38.42
2022-09-02T08:34:05.567Z,37.89
2022-09-02T08:36:32.812Z,37.71
2022-09-02T08:39:04.034Z,37.55
2022-09-02T08:41:45.898Z,37.40
2022-09-02T08:44:19.284Z,37.31
2022-09-02T08:46:48.129Z,36.97
2022-09-02T08:49:31.121Z,36.79
2022-09-02T08:52:01.533Z,36.52
2022-09-02T08:54:40.854Z,36.13
2022-09-02T08:57:09.255Z,35.98
2022-09-02T08:59:38.083Z,35.73
2022-09-02T09:02:25.590Z,35.46
2022-09-02T09:05:15.146Z,35.29
2022-09-02T09:08:21.797Z,35.10
2022-09-02T09:11:31.403Z,34.99
2022-09-02T09:14:23.467Z,34.72
2022-09-02T09:16:57.992Z,34.41
2022-09-02T09:19:32.439Z,34.26
2022-09-02T09:22:03.265Z,34.12
2022-09-02T09:24:37.671Z,33.90
2022-09-02T09:27:14.003Z,33.82
2022-09-02T09:29:41.556Z,33.36
2022-09-02T09:32:28.145Z,33.25
2022-09-02T09:35:11.768Z,32.95
2022-09-02T09:37:51.833Z,32.94
2022-09-02T09:40:20.103Z,32.69
2022-09-02T09:42:55.238Z,32.44
2022-09-02T09:45:47.153Z,32.36
2022-09-02T09:48:23.877Z,32.09
2022-09-02T09:50:57.061Z,31.81
2022-09-02T09:53:28.032Z,31.66
2022-09-02T09:56:05.449Z,31.67
2022-09-02T09:58:41.915Z,31.50
2022-09-02T10:01:20.087Z,31.55
2022-09-02T10:03:53.138Z,31.53
2022-09-02T10:06:23.169Z,31.16
2022-09-02T10:08:58.308Z,31.22
2022-09-02T10:11:28.576Z,31.07
2022-09-02T10:14:04.449Z,30.99
2022-09-02T10:17:13.515Z,30.82
2022-09-02T10:19:56.614Z,30.50
2022-09-02T10:22:59.426Z,30.55
2022-09-02T10:25:49.206Z,30.92
2022-09-02T10:29:00.812Z,30.75
2022-09-02T10:31:33.706Z,30.57
2022-09-02T10:34:25.097Z,30.45
2022-09-02T10:37:17.415Z,30.21
2022-09-02T10:40:08.445Z,30.31
2022-09-02T10:43:03.478Z,30.05
2022-09-02T10:45:40.535Z,29.67
2022-09-02T10:48:29.875Z,29.84
2022-09-02T10:51:15.584Z,29.60
2022-09-02T10:53:59.830Z,29.55
2022-09-02T10:56:33.896Z,29.17
2022-09-02T10:59:07.939Z,29.36
2022-09-02T11:01:49.481Z,29.15
2022-09-02T11:04:26.011Z,29.18
2022-09-02T11:07:02.980Z,28.80
2022-09-02T11:09:46.658Z,28.77
2022-09-02T11:12:16.748Z,28.73
2022-09-02T11:15:16.485Z,28.45
2022-09-02T11:20:57.107Z,28.30
2022-09-02T11:23:47.311Z,28.16
2022-09-02T11:26:24.412Z,28.27
2022-09-02T11:29:18.070Z,27.69
2022-09-02T11:31:58.634Z,27.81
2022-09-02T11:34:34.978Z,28.13
2022-09-02T11:37:29.487Z,27.91
2022-09-02T11:40:33.325Z,27.60
2022-09-02T11:43:23.169Z,27.93
2022-09-02T11:46:17.855Z,27.64
2022-09-02T11:49:00.047Z,27.54
2022-09-02T11:51:46.203Z,27.59
2022-09-02T11:54:18.726Z,27.23
2022-09-02T11:56:50.568Z,27.24
2022-09-02T11:59:23.612Z,27.30
2022-09-02T12:01:54.489Z,27.30
2022-09-02T12:04:58.893Z,26.68
2022-09-02T12:07:13.902Z,27.13
2022-09-02T12:09:49.717Z,27.04
2022-09-02T12:12:40.142Z,26.78
2022-09-02T12:15:17.535Z,27.04
2022-09-02T12:17:51.226Z,26.84
2022-09-02T12:20:41.430Z,26.29
2022-09-02T12:23:11.139Z,26.29
2022-09-02T12:26:02.130Z,26.47
2022-09-02T12:28:31.298Z,26.76
2022-09-02T12:31:01.552Z,26.48
2022-09-02T12:33:31.689Z,26.29
2022-09-02T12:35:59.766Z,26.49
2022-09-02T12:38:38.937Z,26.35
2022-09-02T12:41:12.330Z,25.78
2022-09-02T12:44:15.588Z,26.04
2022-09-02T12:46:48.921Z,25.52
2022-09-02T12:49:41.233Z,25.87
2022-09-02T12:52:32.628Z,25.33
2022-09-02T12:55:07.876Z,25.23
2022-09-02T12:57:47.287Z,25.29
2022-09-02T13:00:17.322Z,24.98
2022-09-02T13:03:02.606Z,25.24
2022-09-02T13:05:49.733Z,25.05
2022-09-02T13:08:48.007Z,25.35
2022-09-02T13:11:37.261Z,25.26
2022-09-02T13:14:10.301Z,25.19
2022-09-02T13:16:52.531Z,25.15
2022-09-02T13:19:41.601Z,24.78
2022-09-02T13:22:39.552Z,24.51
2022-09-02T13:25:29.145Z,24.87
2022-09-02T13:28:18.213Z,24.79
2022-09-02T13:31:33.439Z,24.80
2022-09-02T13:34:05.373Z,24.31
2022-09-02T13:36:45.883Z,24.50
2022-09-02T13:39:24.062Z,24.21
2022-09-02T13:41:51.969Z,24.12
2022-09-02T13:44:24.345Z,24.08
2022-09-02T13:46:56.099Z,24.29
2022-09-02T13:49:37.792Z,24.13
2022-09-02T13:52:11.488Z,23.62
2022-09-02T13:54:48.018Z,23.71
2022-09-02T13:57:22.156Z,23.72
2022-09-02T13:59:53.463Z,23.71
2022-09-02T14:02:22.463Z,23.88
2022-09-02T14:04:53.578Z,23.81
2022-09-02T14:07:31.346Z,23.75
2022-09-02T14:10:01.679Z,23.41
2022-09-02T14:12:32.855Z,23.73
2022-09-02T14:15:00.752Z,23.54
2022-09-02T14:17:28.384Z,23.53
2022-09-02T14:20:17.605Z,23.91
2022-09-02T14:22:58.849Z,23.87
2022-09-02T14:25:30.039Z,23.39
2022-09-02T14:28:00.503Z,23.68
2022-09-02T14:30:30.475Z,23.33
2022-09-02T14:33:16.391Z,23.48
2022-09-02T14:36:06.037Z,23.77
2022-09-02T14:38:50.534Z,23.41
2022-09-02T14:41:17.694Z,23.39
2022-09-02T14:43:57.779Z,23.81
2022-09-02T14:46:33.070Z,23.42
2022-09-02T14:49:08.120Z,23.60
2022-09-02T14:51:44.885Z,23.63
2022-09-02T14:54:12.579Z,23.27
2022-09-02T14:56:53.148Z,23.34
2022-09-02T14:59:20.739Z,23.04
2022-09-02T15:01:51.457Z,22.96
2022-09-02T15:04:19.506Z,23.00
2022-09-02T15:06:48.288Z,23.01
2022-09-02T15:09:16.784Z,23.33
2022-09-02T15:11:49.353Z,23.18
2022-09-02T15:14:16.884Z,23.27
2022-09-02T15:16:44.089Z,23.44
2022-09-02T15:20:18.692Z,22.26
2022-09-02T15:22:45.889Z,23.16
2022-09-02T15:25:13.075Z,23.03
2022-09-02T15:27:40.273Z,23.41
2022-09-02T15:30:09.309Z,23.11
2022-09-02T15:32:37.656Z,23.10
2022-09-02T15:35:06.802Z,23.11
2022-09-02T15:37:37.956Z,23.28
2022-09-02T15:40:08.023Z,23.18
2022-09-02T15:42:39.451Z,23.74
2022-09-02T15:45:10.792Z,23.73
2022-09-02T15:47:38.933Z,23.79
2022-09-02T15:50:07.344Z,23.58
2022-09-02T15:52:35.570Z,23.67
2022-09-02T15:55:03.339Z,23.77
2022-09-02T15:57:30.863Z,23.54
2022-09-02T15:59:58.239Z,23.83
2022-09-02T16:02:25.625Z,24.10
2022-09-02T16:04:52.892Z,23.73
2022-09-02T16:07:20.953Z,24.12
2022-09-02T16:09:48.150Z,24.06
2022-09-02T16:12:15.394Z,24.29
2022-09-02T16:14:42.646Z,23.92
2022-09-02T16:17:10.386Z,23.97
2022-09-02T16:19:37.582Z,24.01
2022-09-02T16:22:04.823Z,24.29
2022-09-02T16:24:32.088Z,24.23
2022-09-02T16:26:59.370Z,24.44
2022-09-02T16:29:28.368Z,24.46
2022-09-02T16:32:14.464Z,24.20
2022-09-02T16:34:45.284Z,24.52
2022-09-02T16:37:12.482Z,24.43
2022-09-02T16:39:39.747Z,24.62
2022-09-02T16:42:07.022Z,24.56
2022-09-02T16:44:35.635Z,24.70
2022-09-02T16:47:02.821Z,25.05
2022-09-02T16:49:30.043Z,25.16
2022-09-02T16:51:59.280Z,25.13
2022-09-02T16:54:31.390Z,24.80
2022-09-02T16:57:00.656Z,25.37
2022-09-02T16:59:27.952Z,25.17
2022-09-02T17:01:55.377Z,25.15
2022-09-02T17:04:22.731Z,25.67
2022-09-02T17:06:50.183Z,26.01
2022-09-02T17:09:17.439Z,25.87
2022-09-02T17:11:45.243Z,26.11
2022-09-02T17:14:16.322Z,26.19
2022-09-02T17:16:46.140Z,25.84
2022-09-02T17:19:21.405Z,26.09
2022-09-02T17:21:53.156Z,26.28
2022-09-02T17:24:23.951Z,26.35
2022-09-02T17:26:55.513Z,26.41
2022-09-02T17:32:11.632Z,26.45
2022-09-02T17:34:38.959Z,26.49
2022-09-02T17:37:06.377Z,26.42
2022-09-02T17:39:36.503Z,26.60
2022-09-02T17:42:06.834Z,26.69
2022-09-02T17:44:37.560Z,26.63
2022-09-02T17:47:07.838Z,26.97
2022-09-02T17:49:36.704Z,26.91
2022-09-02T17:52:07.350Z,26.94
2022-09-02T17:54:36.272Z,27.19
2022-09-02T17:57:17.103Z,27.13
2022-09-02T18:00:09.407Z,27.15
2022-09-02T18:02:37.327Z,27.30
2022-09-02T18:05:21.480Z,27.50
2022-09-02T18:08:06.419Z,27.36
2022-09-02T18:10:39.464Z,27.91
2022-09-02T18:13:28.814Z,27.69
2022-09-02T18:16:30.088Z,27.85
2022-09-02T18:19:13.424Z,27.83
2022-09-02T18:21:40.860Z,27.91
2022-09-02T18:24:48.524Z,28.13
2022-09-02T18:27:40.087Z,28.04
2022-09-02T18:30:17.073Z,28.05
2022-09-02T18:33:15.290Z,28.41
2022-09-02T18:35:55.429Z,28.25
2022-09-02T18:38:42.747Z,28.28
2022-09-02T18:41:33.254Z,28.81
2022-09-02T18:44:10.779Z,28.30
2022-09-02T18:47:01.719Z,28.52
2022-09-02T18:49:33.433Z,28.52
2022-09-02T18:52:04.291Z,28.73
2022-09-02T18:54:51.565Z,28.55
2022-09-02T18:57:18.795Z,28.60
2022-09-02T18:59:55.314Z,28.82
2022-09-02T19:02:31.332Z,28.88
2022-09-02T19:05:01.383Z,28.98
2022-09-02T19:07:47.999Z,28.65
2022-09-02T19:10:15.538Z,28.86
2022-09-02T19:12:44.104Z,29.13
2022-09-02T19:15:14.499Z,29.12
2022-09-02T19:17:44.679Z,28.95
2022-09-02T19:20:11.988Z,29.10
2022-09-02T19:22:44.292Z,29.23
2022-09-02T19:25:17.495Z,29.05
2022-09-02T19:27:47.243Z,29.13
2022-09-02T19:30:18.792Z,29.28
2022-09-02T19:32:50.079Z,29.42
2022-09-02T19:35:20.406Z,29.31
2022-09-02T19:37:51.632Z,29.32
2022-09-02T19:40:22.157Z,29.35
2022-09-02T19:42:51.862Z,29.34
2022-09-02T19:45:19.952Z,29.25
2022-09-02T19:48:08.349Z,29.49
2022-09-02T19:50:38.210Z,29.17
2022-09-02T19:53:06.192Z,29.52
2022-09-02T19:55:36.107Z,29.67
2022-09-02T19:58:03.359Z,29.59
2022-09-02T20:00:33.189Z,29.78
2022-09-02T20:03:00.646Z,29.94
2022-09-02T20:05:28.905Z,29.62
2022-09-02T20:07:56.448Z,29.79
2022-09-02T20:10:29.855Z,29.80
2022-09-02T20:12:58.967Z,29.97
2022-09-02T20:15:26.148Z,29.85
2022-09-02T20:17:54.795Z,30.04
2022-09-02T20:20:25.299Z,29.88
2022-09-02T20:22:55.151Z,29.90
2022-09-02T20:25:31.554Z,30.06
2022-09-02T20:28:01.180Z,30.09
2022-09-02T20:30:33.795Z,30.30
2022-09-02T20:33:05.764Z,29.94
2022-09-02T20:35:58.037Z,30.38
2022-09-02T20:38:43.939Z,30.28
2022-09-02T20:41:46.488Z,30.01
2022-09-02T20:44:14.559Z,30.36
2022-09-02T20:47:08.429Z,30.21
2022-09-02T20:49:47.989Z,30.41
2022-09-02T20:53:05.192Z,30.48
2022-09-02T20:56:01.915Z,30.18
2022-09-02T20:58:54.023Z,30.19
2022-09-02T21:01:26.569Z,30.49
2022-09-02T21:04:21.063Z,30.24
2022-09-02T21:07:22.005Z,30.50
2022-09-02T21:10:03.393Z,30.42
2022-09-02T21:12:57.589Z,30.39
2022-09-02T21:15:43.573Z,30.45
2022-09-02T21:18:47.508Z,30.27
2022-09-02T21:21:42.485Z,30.68
2022-09-02T21:24:30.734Z,30.48
2022-09-02T21:27:23.735Z,30.49
2022-09-02T21:30:03.305Z,30.81
2022-09-02T21:32:49.106Z,30.80
2022-09-02T21:35:22.981Z,30.54
2022-09-02T21:37:55.083Z,30.78
2022-09-02T21:40:33.104Z,30.70
2022-09-02T21:43:19.099Z,30.46
2022-09-02T21:46:11.367Z,30.94
2022-09-02T21:48:57.282Z,30.81
2022-09-02T21:51:53.547Z,30.61
2022-09-02T21:54:32.440Z,30.76
2022-09-02T21:57:09.160Z,30.74
2022-09-02T22:00:11.281Z,31.18
2022-09-02T22:03:05.406Z,30.69
2022-09-02T22:05:47.620Z,31.12
2022-09-02T22:08:39.312Z,30.91
2022-09-02T22:11:23.306Z,31.19
2022-09-02T22:13:50.580Z,31.27
2022-09-02T22:16:48.317Z,31.00
2022-09-02T22:19:16.667Z,31.20
2022-09-02T22:22:11.465Z,31.10
2022-09-02T22:24:40.496Z,31.28
2022-09-02T22:27:27.815Z,31.08
2022-09-02T22:30:15.259Z,31.20
2022-09-02T22:32:49.539Z,31.42
2022-09-02T22:35:24.798Z,31.25
2022-09-02T22:38:01.817Z,31.06
2022-09-02T22:40:33.960Z,31.41
2022-09-02T22:43:07.022Z,31.39
2022-09-02T22:46:04.366Z,31.61
2022-09-02T22:49:00.867Z,31.61
2022-09-02T22:51:57.403Z,31.64
2022-09-02T22:54:27.365Z,31.56
2022-09-02T22:57:21.189Z,31.66
2022-09-02T23:00:02.363Z,31.88
2022-09-02T23:02:45.665Z,31.76
2022-09-02T23:05:49.148Z,31.67
2022-09-02T23:08:20.454Z,31.98
2022-09-02T23:10:54.279Z,31.78
2022-09-02T23:13:29.556Z,32.18
2022-09-02T23:16:11.723Z,31.67
2022-09-02T23:19:03.927Z,31.91
2022-09-02T23:21:54.326Z,31.90
2022-09-02T23:24:44.934Z,32.16
2022-09-02T23:27:34.114Z,32.05
2022-09-02T23:30:01.668Z,32.16
2022-09-02T23:32:28.818Z,32.12
2022-09-02T23:35:20.953Z,32.34
2022-09-02T23:37:54.031Z,32.10
2022-09-02T23:40:31.214Z,32.34
2022-09-02T23:43:00.115Z,32.32
2022-09-02T23:45:30.981Z,32.01
2022-09-02T23:48:19.904Z,32.42
2022-09-02T23:51:00.176Z,32.27
2022-09-02T23:53:34.674Z,32.36
2022-09-02T23:56:33.456Z,32.23
2022-09-02T23:59:33.831Z,32.35
